sensor_id;sensor_type;location;lat;lon;timestamp;temperature;humidity
46784;DHT22;32544;52.832;13.816;2023-02-01T00:00:16;23.20;47.00
46784;DHT22;32544;52.832;13.816;2023-02-01T00:01:17;23.20;47.00
46784;DHT22;32544;52.832;13.816;2023-02-01T00:02:17;23.30;47.10
46784;DHT22;32544;52.832;13.816;2023-02-01T00:03:18;23.30;47.70
46784;DHT22;32544;52.832;13.816;2023-02-01T00:04:19;23.30;47.10
46784;DHT22;32544;52.832;13.816;2023-02-01T00:05:19;23.20;47.00
46784;DHT22;32544;52.832;13.816;2023-02-01T00:06:20;23.20;47.00
46784;DHT22;32544;52.832;13.816;2023-02-01T00:07:21;23.30;47.10
46784;DHT22;32544;52.832;13.816;2023-02-01T00:08:21;23.30;47.00
46784;DHT22;32544;52.832;13.816;2023-02-01T00:09:22;23.30;47.00
46784;DHT22;32544;52.832;13.816;2023-02-01T00:10:22;23.20;47.00
46784;DHT22;32544;52.832;13.816;2023-02-01T00:11:23;23.20;47.00
46784;DHT22;32544;52.832;13.816;2023-02-01T00:12:23;23.20;47.00
46784;DHT22;32544;52.832;13.816;2023-02-01T00:13:24;23.20;47.10
46784;DHT22;32544;52.832;13.816;2023-02-01T00:14:24;23.20;47.00
46784;DHT22;32544;52.832;13.816;2023-02-01T00:15:25;23.20;47.00
46784;DHT22;32544;52.832;13.816;2023-02-01T00:16:27;23.20;47.00
46784;DHT22;32544;52.832;13.816;2023-02-01T00:17:27;23.20;47.00
46784;DHT22;32544;52.832;13.816;2023-02-01T00:18:28;23.20;47.00
46784;DHT22;32544;52.832;13.816;2023-02-01T00:19:28;23.20;47.00
46784;DHT22;32544;52.832;13.816;2023-02-01T00:20:29;23.20;47.10
46784;DHT22;32544;52.832;13.816;2023-02-01T00:21:30;23.20;47.10
46784;DHT22;32544;52.832;13.816;2023-02-01T00:22:30;23.20;47.10
46784;DHT22;32544;52.832;13.816;2023-02-01T00:23:32;23.20;47.10
46784;DHT22;32544;52.832;13.816;2023-02-01T00:24:32;23.20;47.10
46784;DHT22;32544;52.832;13.816;2023-02-01T00:25:33;23.20;47.10
46784;DHT22;32544;52.832;13.816;2023-02-01T00:26:43;23.20;47.10
46784;DHT22;32544;52.832;13.816;2023-02-01T00:27:48;23.20;47.10
46784;DHT22;32544;52.832;13.816;2023-02-01T00:28:49;23.20;47.10
46784;DHT22;32544;52.832;13.816;2023-02-01T00:29:49;23.20;47.10
46784;DHT22;32544;52.832;13.816;2023-02-01T00:30:59;23.20;47.10
46784;DHT22;32544;52.832;13.816;2023-02-01T00:32:00;23.20;47.10
46784;DHT22;32544;52.832;13.816;2023-02-01T00:33:01;23.20;47.10
46784;DHT22;32544;52.832;13.816;2023-02-01T00:34:01;23.20;47.10
46784;DHT22;32544;52.832;13.816;2023-02-01T00:35:02;23.20;47.10
46784;DHT22;32544;52.832;13.816;2023-02-01T00:36:04;23.20;47.20
46784;DHT22;32544;52.832;13.816;2023-02-01T00:37:05;23.20;47.10
46784;DHT22;32544;52.832;13.816;2023-02-01T00:38:05;23.20;47.10
46784;DHT22;32544;52.832;13.816;2023-02-01T00:39:06;23.20;47.10
46784;DHT22;32544;52.832;13.816;2023-02-01T00:40:07;23.20;47.10
46784;DHT22;32544;52.832;13.816;2023-02-01T00:42:08;23.20;47.10
46784;DHT22;32544;52.832;13.816;2023-02-01T00:43:10;23.10;47.00
46784;DHT22;32544;52.832;13.816;2023-02-01T00:44:10;23.20;47.10
46784;DHT22;32544;52.832;13.816;2023-02-01T00:45:11;23.10;47.00
46784;DHT22;32544;52.832;13.816;2023-02-01T00:46:12;23.10;47.00
46784;DHT22;32544;52.832;13.816;2023-02-01T00:47:13;23.10;47.00
46784;DHT22;32544;52.832;13.816;2023-02-01T00:48:13;23.20;47.10
46784;DHT22;32544;52.832;13.816;2023-02-01T00:49:14;23.10;47.00
46784;DHT22;32544;52.832;13.816;2023-02-01T00:50:15;23.10;47.00
46784;DHT22;32544;52.832;13.816;2023-02-01T00:51:16;23.10;47.00
46784;DHT22;32544;52.832;13.816;2023-02-01T00:52:17;23.10;47.00
46784;DHT22;32544;52.832;13.816;2023-02-01T00:53:17;23.20;47.00
46784;DHT22;32544;52.832;13.816;2023-02-01T00:54:18;23.10;47.00
46784;DHT22;32544;52.832;13.816;2023-02-01T00:55:19;23.10;46.90
46784;DHT22;32544;52.832;13.816;2023-02-01T00:56:19;23.10;46.90
46784;DHT22;32544;52.832;13.816;2023-02-01T00:57:20;23.20;47.00
46784;DHT22;32544;52.832;13.816;2023-02-01T00:58:21;23.10;46.90
46784;DHT22;32544;52.832;13.816;2023-02-01T00:59:23;23.10;46.90
46784;DHT22;32544;52.832;13.816;2023-02-01T01:00:23;23.10;46.80
46784;DHT22;32544;52.832;13.816;2023-02-01T01:01:26;23.10;46.90
46784;DHT22;32544;52.832;13.816;2023-02-01T01:02:26;23.10;46.90
46784;DHT22;32544;52.832;13.816;2023-02-01T01:03:28;23.10;46.90
46784;DHT22;32544;52.832;13.816;2023-02-01T01:04:29;23.10;46.90
46784;DHT22;32544;52.832;13.816;2023-02-01T01:05:30;23.10;46.80
46784;DHT22;32544;52.832;13.816;2023-02-01T01:06:31;23.10;46.80
46784;DHT22;32544;52.832;13.816;2023-02-01T01:07:32;23.10;46.80
46784;DHT22;32544;52.832;13.816;2023-02-01T01:08:33;23.10;46.80
46784;DHT22;32544;52.832;13.816;2023-02-01T01:09:34;23.10;46.80
46784;DHT22;32544;52.832;13.816;2023-02-01T01:10:34;23.20;46.80
46784;DHT22;32544;52.832;13.816;2023-02-01T01:11:36;23.20;46.80
46784;DHT22;32544;52.832;13.816;2023-02-01T01:12:37;23.10;46.70
46784;DHT22;32544;52.832;13.816;2023-02-01T01:13:37;23.20;46.70
46784;DHT22;32544;52.832;13.816;2023-02-01T01:14:38;23.20;46.70
46784;DHT22;32544;52.832;13.816;2023-02-01T01:15:39;23.20;46.70
46784;DHT22;32544;52.832;13.816;2023-02-01T01:16:40;23.20;46.70
46784;DHT22;32544;52.832;13.816;2023-02-01T01:17:40;23.20;46.70
46784;DHT22;32544;52.832;13.816;2023-02-01T01:18:41;23.20;46.70
46784;DHT22;32544;52.832;13.816;2023-02-01T01:19:42;23.20;46.70
46784;DHT22;32544;52.832;13.816;2023-02-01T01:20:43;23.20;46.70
46784;DHT22;32544;52.832;13.816;2023-02-01T01:21:44;23.20;46.70
46784;DHT22;32544;52.832;13.816;2023-02-01T01:22:44;23.20;46.70
46784;DHT22;32544;52.832;13.816;2023-02-01T01:23:45;23.20;46.70
46784;DHT22;32544;52.832;13.816;2023-02-01T01:24:46;23.20;46.70
46784;DHT22;32544;52.832;13.816;2023-02-01T01:25:47;23.20;46.70
46784;DHT22;32544;52.832;13.816;2023-02-01T01:26:48;23.20;46.70
46784;DHT22;32544;52.832;13.816;2023-02-01T01:27:48;23.20;46.70
46784;DHT22;32544;52.832;13.816;2023-02-01T01:28:49;23.20;46.60
46784;DHT22;32544;52.832;13.816;2023-02-01T01:29:50;23.20;46.70
46784;DHT22;32544;52.832;13.816;2023-02-01T01:30:50;23.10;46.60
46784;DHT22;32544;52.832;13.816;2023-02-01T01:31:51;23.20;46.60
46784;DHT22;32544;52.832;13.816;2023-02-01T01:32:51;23.20;46.60
46784;DHT22;32544;52.832;13.816;2023-02-01T01:33:53;23.20;46.60
46784;DHT22;32544;52.832;13.816;2023-02-01T01:34:53;23.20;46.70
46784;DHT22;32544;52.832;13.816;2023-02-01T01:35:54;23.20;46.60
46784;DHT22;32544;52.832;13.816;2023-02-01T01:36:55;23.20;46.70
46784;DHT22;32544;52.832;13.816;2023-02-01T01:37:55;23.10;46.60
46784;DHT22;32544;52.832;13.816;2023-02-01T01:38:56;23.20;46.60
46784;DHT22;32544;52.832;13.816;2023-02-01T01:39:56;23.20;47.30
46784;DHT22;32544;52.832;13.816;2023-02-01T01:40:57;23.10;46.60
46784;DHT22;32544;52.832;13.816;2023-02-01T01:41:58;23.10;46.60
46784;DHT22;32544;52.832;13.816;2023-02-01T01:43:00;23.10;46.60
46784;DHT22;32544;52.832;13.816;2023-02-01T01:44:02;23.10;46.60
46784;DHT22;32544;52.832;13.816;2023-02-01T01:45:05;23.10;46.60
46784;DHT22;32544;52.832;13.816;2023-02-01T01:46:07;23.10;46.60
46784;DHT22;32544;52.832;13.816;2023-02-01T01:47:07;23.10;46.60
46784;DHT22;32544;52.832;13.816;2023-02-01T01:48:11;23.10;46.60
46784;DHT22;32544;52.832;13.816;2023-02-01T01:49:14;23.10;46.60
46784;DHT22;32544;52.832;13.816;2023-02-01T01:50:18;23.10;46.60
46784;DHT22;32544;52.832;13.816;2023-02-01T01:51:20;23.10;46.70
46784;DHT22;32544;52.832;13.816;2023-02-01T01:52:21;23.10;46.60
46784;DHT22;32544;52.832;13.816;2023-02-01T01:53:27;23.10;46.70
46784;DHT22;32544;52.832;13.816;2023-02-01T01:55:30;23.10;46.70
46784;DHT22;32544;52.832;13.816;2023-02-01T01:56:31;23.10;46.60
46784;DHT22;32544;52.832;13.816;2023-02-01T01:57:40;23.10;46.60
46784;DHT22;32544;52.832;13.816;2023-02-01T01:58:42;23.10;46.60
46784;DHT22;32544;52.832;13.816;2023-02-01T01:59:43;23.10;46.60
46784;DHT22;32544;52.832;13.816;2023-02-01T02:00:47;23.10;46.60
46784;DHT22;32544;52.832;13.816;2023-02-01T02:01:47;23.10;46.60
46784;DHT22;32544;52.832;13.816;2023-02-01T02:02:51;23.10;46.50
46784;DHT22;32544;52.832;13.816;2023-02-01T02:03:52;23.10;46.50
46784;DHT22;32544;52.832;13.816;2023-02-01T02:04:53;23.20;46.50
46784;DHT22;32544;52.832;13.816;2023-02-01T02:05:55;23.20;46.40
46784;DHT22;32544;52.832;13.816;2023-02-01T02:06:59;23.20;46.40
46784;DHT22;32544;52.832;13.816;2023-02-01T02:08:01;23.20;46.40
46784;DHT22;32544;52.832;13.816;2023-02-01T02:09:02;23.20;46.40
46784;DHT22;32544;52.832;13.816;2023-02-01T02:10:05;23.20;46.40
46784;DHT22;32544;52.832;13.816;2023-02-01T02:11:06;23.20;46.30
46784;DHT22;32544;52.832;13.816;2023-02-01T02:12:07;23.20;46.30
46784;DHT22;32544;52.832;13.816;2023-02-01T02:13:07;23.20;46.30
46784;DHT22;32544;52.832;13.816;2023-02-01T02:14:10;23.20;46.30
46784;DHT22;32544;52.832;13.816;2023-02-01T02:15:12;23.20;46.30
46784;DHT22;32544;52.832;13.816;2023-02-01T02:16:19;23.20;46.30
46784;DHT22;32544;52.832;13.816;2023-02-01T02:17:31;23.20;46.30
46784;DHT22;32544;52.832;13.816;2023-02-01T02:18:43;23.20;46.30
46784;DHT22;32544;52.832;13.816;2023-02-01T02:20:48;23.20;46.30
46784;DHT22;32544;52.832;13.816;2023-02-01T02:29:36;23.20;46.20
46784;DHT22;32544;52.832;13.816;2023-02-01T02:37:03;23.20;46.20
46784;DHT22;32544;52.832;13.816;2023-02-01T02:38:11;23.20;46.20
46784;DHT22;32544;52.832;13.816;2023-02-01T02:39:21;23.20;46.20
46784;DHT22;32544;52.832;13.816;2023-02-01T02:41:36;23.20;46.10
46784;DHT22;32544;52.832;13.816;2023-02-01T02:44:49;23.20;46.10
46784;DHT22;32544;52.832;13.816;2023-02-01T02:46:25;23.20;46.10
46784;DHT22;32544;52.832;13.816;2023-02-01T02:47:52;23.20;46.10
46784;DHT22;32544;52.832;13.816;2023-02-01T02:50:16;23.20;46.10
46784;DHT22;32544;52.832;13.816;2023-02-01T02:51:46;23.20;46.10
46784;DHT22;32544;52.832;13.816;2023-02-01T02:53:14;23.20;46.10
46784;DHT22;32544;52.832;13.816;2023-02-01T02:54:36;23.20;46.20
46784;DHT22;32544;52.832;13.816;2023-02-01T02:55:48;23.20;46.20
46784;DHT22;32544;52.832;13.816;2023-02-01T02:56:51;23.20;46.10
46784;DHT22;32544;52.832;13.816;2023-02-01T02:58:12;23.20;46.10
46784;DHT22;32544;52.832;13.816;2023-02-01T02:59:32;23.20;46.10
46784;DHT22;32544;52.832;13.816;2023-02-01T03:00:53;23.20;46.10
46784;DHT22;32544;52.832;13.816;2023-02-01T03:02:14;23.20;46.10
46784;DHT22;32544;52.832;13.816;2023-02-01T03:03:38;23.20;46.10
46784;DHT22;32544;52.832;13.816;2023-02-01T03:04:57;23.20;46.10
46784;DHT22;32544;52.832;13.816;2023-02-01T03:05:59;23.20;46.10
46784;DHT22;32544;52.832;13.816;2023-02-01T03:08:16;23.20;46.10
46784;DHT22;32544;52.832;13.816;2023-02-01T03:09:30;23.20;46.10
46784;DHT22;32544;52.832;13.816;2023-02-01T03:11:42;23.20;46.10
46784;DHT22;32544;52.832;13.816;2023-02-01T03:13:11;23.20;46.10
46784;DHT22;32544;52.832;13.816;2023-02-01T03:14:13;23.20;46.10
46784;DHT22;32544;52.832;13.816;2023-02-01T03:15:14;23.30;46.10
46784;DHT22;32544;52.832;13.816;2023-02-01T03:17:20;23.30;46.70
46784;DHT22;32544;52.832;13.816;2023-02-01T03:18:24;23.30;46.10
46784;DHT22;32544;52.832;13.816;2023-02-01T03:19:28;23.30;46.10
46784;DHT22;32544;52.832;13.816;2023-02-01T03:20:29;23.30;46.00
46784;DHT22;32544;52.832;13.816;2023-02-01T03:21:39;23.30;46.00
46784;DHT22;32544;52.832;13.816;2023-02-01T03:22:42;23.30;46.00
46784;DHT22;32544;52.832;13.816;2023-02-01T03:23:44;23.30;46.00
46784;DHT22;32544;52.832;13.816;2023-02-01T03:24:47;23.30;46.00
46784;DHT22;32544;52.832;13.816;2023-02-01T03:25:49;23.30;46.00
46784;DHT22;32544;52.832;13.816;2023-02-01T03:26:53;23.30;46.00
46784;DHT22;32544;52.832;13.816;2023-02-01T03:27:57;23.30;46.00
46784;DHT22;32544;52.832;13.816;2023-02-01T03:29:12;23.30;46.00
46784;DHT22;32544;52.832;13.816;2023-02-01T03:30:20;23.30;46.00
46784;DHT22;32544;52.832;13.816;2023-02-01T03:31:22;23.30;45.90
46784;DHT22;32544;52.832;13.816;2023-02-01T03:32:23;23.40;46.50
46784;DHT22;32544;52.832;13.816;2023-02-01T03:33:24;23.40;45.90
46784;DHT22;32544;52.832;13.816;2023-02-01T03:34:25;23.40;45.90
46784;DHT22;32544;52.832;13.816;2023-02-01T03:35:30;23.40;45.90
46784;DHT22;32544;52.832;13.816;2023-02-01T03:36:37;23.40;45.90
46784;DHT22;32544;52.832;13.816;2023-02-01T03:37:40;23.40;45.80
46784;DHT22;32544;52.832;13.816;2023-02-01T03:38:48;23.40;45.80
46784;DHT22;32544;52.832;13.816;2023-02-01T03:39:56;23.40;45.80
46784;DHT22;32544;52.832;13.816;2023-02-01T03:41:09;23.40;45.80
46784;DHT22;32544;52.832;13.816;2023-02-01T03:42:16;23.40;45.70
46784;DHT22;32544;52.832;13.816;2023-02-01T03:43:18;23.40;45.70
46784;DHT22;32544;52.832;13.816;2023-02-01T03:46:29;23.40;45.70
46784;DHT22;32544;52.832;13.816;2023-02-01T03:47:34;23.50;45.70
46784;DHT22;32544;52.832;13.816;2023-02-01T03:48:35;23.50;45.70
46784;DHT22;32544;52.832;13.816;2023-02-01T03:49:40;23.50;45.70
46784;DHT22;32544;52.832;13.816;2023-02-01T03:50:47;23.50;46.40
46784;DHT22;32544;52.832;13.816;2023-02-01T03:51:49;23.50;45.70
46784;DHT22;32544;52.832;13.816;2023-02-01T03:52:52;23.50;45.70
46784;DHT22;32544;52.832;13.816;2023-02-01T03:53:54;23.50;45.70
46784;DHT22;32544;52.832;13.816;2023-02-01T03:54:55;23.50;45.70
46784;DHT22;32544;52.832;13.816;2023-02-01T03:55:57;23.50;46.20
46784;DHT22;32544;52.832;13.816;2023-02-01T03:56:59;23.40;45.60
46784;DHT22;32544;52.832;13.816;2023-02-01T03:58:12;23.50;45.60
46784;DHT22;32544;52.832;13.816;2023-02-01T03:59:13;23.50;45.60
46784;DHT22;32544;52.832;13.816;2023-02-01T04:00:19;23.50;45.60
46784;DHT22;32544;52.832;13.816;2023-02-01T04:01:20;23.50;45.60
46784;DHT22;32544;52.832;13.816;2023-02-01T04:02:21;23.50;45.60
46784;DHT22;32544;52.832;13.816;2023-02-01T04:03:21;23.50;45.60
46784;DHT22;32544;52.832;13.816;2023-02-01T04:04:22;23.50;45.60
46784;DHT22;32544;52.832;13.816;2023-02-01T04:05:26;23.50;45.60
46784;DHT22;32544;52.832;13.816;2023-02-01T04:06:34;23.50;45.60
46784;DHT22;32544;52.832;13.816;2023-02-01T04:07:38;23.50;45.60
46784;DHT22;32544;52.832;13.816;2023-02-01T04:08:38;23.50;45.70
46784;DHT22;32544;52.832;13.816;2023-02-01T04:09:39;23.50;45.60
46784;DHT22;32544;52.832;13.816;2023-02-01T04:10:39;23.50;45.60
46784;DHT22;32544;52.832;13.816;2023-02-01T04:11:40;23.50;45.60
46784;DHT22;32544;52.832;13.816;2023-02-01T04:12:40;23.50;45.70
46784;DHT22;32544;52.832;13.816;2023-02-01T04:13:41;23.50;45.70
46784;DHT22;32544;52.832;13.816;2023-02-01T04:14:42;23.50;45.70
46784;DHT22;32544;52.832;13.816;2023-02-01T04:15:42;23.50;45.70
46784;DHT22;32544;52.832;13.816;2023-02-01T04:16:43;23.40;45.60
46784;DHT22;32544;52.832;13.816;2023-02-01T04:17:44;23.40;45.70
46784;DHT22;32544;52.832;13.816;2023-02-01T04:18:44;23.40;45.70
46784;DHT22;32544;52.832;13.816;2023-02-01T04:19:45;23.40;45.70
46784;DHT22;32544;52.832;13.816;2023-02-01T04:20:46;23.40;45.70
46784;DHT22;32544;52.832;13.816;2023-02-01T04:21:46;23.40;45.70
46784;DHT22;32544;52.832;13.816;2023-02-01T04:22:47;23.40;45.70
46784;DHT22;32544;52.832;13.816;2023-02-01T04:23:47;23.40;45.70
46784;DHT22;32544;52.832;13.816;2023-02-01T04:24:48;23.40;45.70
46784;DHT22;32544;52.832;13.816;2023-02-01T04:25:48;23.40;45.70
46784;DHT22;32544;52.832;13.816;2023-02-01T04:26:49;23.40;45.70
46784;DHT22;32544;52.832;13.816;2023-02-01T04:27:50;23.40;45.70
46784;DHT22;32544;52.832;13.816;2023-02-01T04:28:50;23.40;45.80
46784;DHT22;32544;52.832;13.816;2023-02-01T04:29:52;23.40;45.80
46784;DHT22;32544;52.832;13.816;2023-02-01T04:30:53;23.40;45.80
46784;DHT22;32544;52.832;13.816;2023-02-01T04:31:54;23.30;45.80
46784;DHT22;32544;52.832;13.816;2023-02-01T04:32:54;23.30;45.80
46784;DHT22;32544;52.832;13.816;2023-02-01T04:33:55;23.30;45.80
46784;DHT22;32544;52.832;13.816;2023-02-01T04:34:57;23.30;45.80
46784;DHT22;32544;52.832;13.816;2023-02-01T04:35:58;23.30;45.90
46784;DHT22;32544;52.832;13.816;2023-02-01T04:36:58;23.30;45.90
46784;DHT22;32544;52.832;13.816;2023-02-01T04:37:59;23.30;45.90
46784;DHT22;32544;52.832;13.816;2023-02-01T04:39:00;23.20;45.90
46784;DHT22;32544;52.832;13.816;2023-02-01T04:40:00;23.20;45.90
46784;DHT22;32544;52.832;13.816;2023-02-01T04:41:03;23.20;45.90
46784;DHT22;32544;52.832;13.816;2023-02-01T04:42:04;23.20;46.00
46784;DHT22;32544;52.832;13.816;2023-02-01T04:43:05;23.20;46.00
46784;DHT22;32544;52.832;13.816;2023-02-01T04:44:05;23.20;46.00
46784;DHT22;32544;52.832;13.816;2023-02-01T04:45:06;23.20;46.00
46784;DHT22;32544;52.832;13.816;2023-02-01T04:46:07;23.20;46.00
46784;DHT22;32544;52.832;13.816;2023-02-01T04:47:07;23.20;46.00
46784;DHT22;32544;52.832;13.816;2023-02-01T04:48:08;23.20;46.00
46784;DHT22;32544;52.832;13.816;2023-02-01T04:49:09;23.10;46.00
46784;DHT22;32544;52.832;13.816;2023-02-01T04:50:09;23.10;46.10
46784;DHT22;32544;52.832;13.816;2023-02-01T04:51:10;23.10;46.10
46784;DHT22;32544;52.832;13.816;2023-02-01T04:52:11;23.10;46.10
46784;DHT22;32544;52.832;13.816;2023-02-01T04:53:12;23.10;46.10
46784;DHT22;32544;52.832;13.816;2023-02-01T04:54:12;23.10;46.10
46784;DHT22;32544;52.832;13.816;2023-02-01T04:55:13;23.10;46.20
46784;DHT22;32544;52.832;13.816;2023-02-01T04:56:13;23.10;46.20
46784;DHT22;32544;52.832;13.816;2023-02-01T04:57:14;23.10;46.20
46784;DHT22;32544;52.832;13.816;2023-02-01T04:58:15;23.10;46.30
46784;DHT22;32544;52.832;13.816;2023-02-01T04:59:15;23.10;46.20
46784;DHT22;32544;52.832;13.816;2023-02-01T05:00:16;23.10;46.30
46784;DHT22;32544;52.832;13.816;2023-02-01T05:01:17;23.10;46.30
46784;DHT22;32544;52.832;13.816;2023-02-01T05:02:17;23.10;46.30
46784;DHT22;32544;52.832;13.816;2023-02-01T05:03:18;23.10;46.30
46784;DHT22;32544;52.832;13.816;2023-02-01T05:04:18;23.10;47.00
46784;DHT22;32544;52.832;13.816;2023-02-01T05:05:19;23.10;46.40
46784;DHT22;32544;52.832;13.816;2023-02-01T05:06:20;23.10;46.30
46784;DHT22;32544;52.832;13.816;2023-02-01T05:07:20;23.10;46.40
46784;DHT22;32544;52.832;13.816;2023-02-01T05:08:21;23.00;46.30
46784;DHT22;32544;52.832;13.816;2023-02-01T05:09:22;23.10;46.40
46784;DHT22;32544;52.832;13.816;2023-02-01T05:10:23;23.10;46.40
46784;DHT22;32544;52.832;13.816;2023-02-01T05:11:23;23.00;46.30
46784;DHT22;32544;52.832;13.816;2023-02-01T05:12:45;23.00;46.30
46784;DHT22;32544;52.832;13.816;2023-02-01T05:14:04;23.10;47.00
46784;DHT22;32544;52.832;13.816;2023-02-01T05:15:05;23.00;46.30
46784;DHT22;32544;52.832;13.816;2023-02-01T05:16:06;23.00;46.30
46784;DHT22;32544;52.832;13.816;2023-02-01T05:17:07;23.00;46.30
46784;DHT22;32544;52.832;13.816;2023-02-01T05:18:08;23.00;46.30
46784;DHT22;32544;52.832;13.816;2023-02-01T05:19:08;23.00;46.30
46784;DHT22;32544;52.832;13.816;2023-02-01T05:20:09;23.00;46.30
46784;DHT22;32544;52.832;13.816;2023-02-01T05:21:10;23.00;46.20
46784;DHT22;32544;52.832;13.816;2023-02-01T05:22:10;23.00;46.20
46784;DHT22;32544;52.832;13.816;2023-02-01T05:23:11;23.00;46.20
46784;DHT22;32544;52.832;13.816;2023-02-01T05:24:11;23.00;46.20
46784;DHT22;32544;52.832;13.816;2023-02-01T05:25:19;23.00;46.20
46784;DHT22;32544;52.832;13.816;2023-02-01T05:26:20;23.10;46.20
46784;DHT22;32544;52.832;13.816;2023-02-01T05:27:20;23.10;46.20
46784;DHT22;32544;52.832;13.816;2023-02-01T05:28:21;23.10;46.10
46784;DHT22;32544;52.832;13.816;2023-02-01T05:29:22;23.10;46.20
46784;DHT22;32544;52.832;13.816;2023-02-01T05:30:22;23.10;46.70
46784;DHT22;32544;52.832;13.816;2023-02-01T05:31:23;23.10;46.10
46784;DHT22;32544;52.832;13.816;2023-02-01T05:32:24;23.10;46.00
46784;DHT22;32544;52.832;13.816;2023-02-01T05:33:24;23.20;46.00
46784;DHT22;32544;52.832;13.816;2023-02-01T05:34:25;23.20;46.00
46784;DHT22;32544;52.832;13.816;2023-02-01T05:35:25;23.20;45.90
46784;DHT22;32544;52.832;13.816;2023-02-01T05:36:26;23.20;45.90
46784;DHT22;32544;52.832;13.816;2023-02-01T05:37:26;23.20;45.80
46784;DHT22;32544;52.832;13.816;2023-02-01T05:38:27;23.20;45.80
46784;DHT22;32544;52.832;13.816;2023-02-01T05:39:29;23.20;45.80
46784;DHT22;32544;52.832;13.816;2023-02-01T05:40:30;23.20;45.80
46784;DHT22;32544;52.832;13.816;2023-02-01T05:41:31;23.20;45.70
46784;DHT22;32544;52.832;13.816;2023-02-01T05:42:31;23.30;45.70
46784;DHT22;32544;52.832;13.816;2023-02-01T05:43:32;23.30;45.70
46784;DHT22;32544;52.832;13.816;2023-02-01T05:44:33;23.30;45.70
46784;DHT22;32544;52.832;13.816;2023-02-01T05:45:33;23.30;45.70
46784;DHT22;32544;52.832;13.816;2023-02-01T05:46:34;23.30;45.70
46784;DHT22;32544;52.832;13.816;2023-02-01T05:47:35;23.30;45.60
46784;DHT22;32544;52.832;13.816;2023-02-01T05:48:36;23.30;45.60
46784;DHT22;32544;52.832;13.816;2023-02-01T05:49:36;23.30;45.60
46784;DHT22;32544;52.832;13.816;2023-02-01T05:50:37;23.40;45.60
46784;DHT22;32544;52.832;13.816;2023-02-01T05:51:42;23.30;45.60
46784;DHT22;32544;52.832;13.816;2023-02-01T05:52:43;23.30;45.60
46784;DHT22;32544;52.832;13.816;2023-02-01T05:53:44;23.40;45.60
46784;DHT22;32544;52.832;13.816;2023-02-01T05:54:45;23.40;45.60
46784;DHT22;32544;52.832;13.816;2023-02-01T05:55:46;23.40;45.60
46784;DHT22;32544;52.832;13.816;2023-02-01T05:56:46;23.40;45.60
46784;DHT22;32544;52.832;13.816;2023-02-01T05:57:47;23.40;45.60
46784;DHT22;32544;52.832;13.816;2023-02-01T05:58:48;23.40;45.50
46784;DHT22;32544;52.832;13.816;2023-02-01T05:59:48;23.40;45.60
46784;DHT22;32544;52.832;13.816;2023-02-01T06:00:49;23.40;45.60
46784;DHT22;32544;52.832;13.816;2023-02-01T06:01:49;23.40;45.60
46784;DHT22;32544;52.832;13.816;2023-02-01T06:02:50;23.40;45.50
46784;DHT22;32544;52.832;13.816;2023-02-01T06:03:50;23.40;45.60
46784;DHT22;32544;52.832;13.816;2023-02-01T06:04:51;23.40;45.50
46784;DHT22;32544;52.832;13.816;2023-02-01T06:05:51;23.40;45.50
46784;DHT22;32544;52.832;13.816;2023-02-01T06:06:52;23.40;45.50
46784;DHT22;32544;52.832;13.816;2023-02-01T06:07:53;23.40;45.50
46784;DHT22;32544;52.832;13.816;2023-02-01T06:08:53;23.40;45.50
46784;DHT22;32544;52.832;13.816;2023-02-01T06:09:54;23.40;45.50
46784;DHT22;32544;52.832;13.816;2023-02-01T06:10:58;23.40;45.50
46784;DHT22;32544;52.832;13.816;2023-02-01T06:11:59;23.40;45.50
46784;DHT22;32544;52.832;13.816;2023-02-01T06:12:59;23.40;45.50
46784;DHT22;32544;52.832;13.816;2023-02-01T06:14:00;23.40;45.60
46784;DHT22;32544;52.832;13.816;2023-02-01T06:15:00;23.40;45.60
46784;DHT22;32544;52.832;13.816;2023-02-01T06:16:02;23.40;45.50
46784;DHT22;32544;52.832;13.816;2023-02-01T06:17:03;23.40;45.50
46784;DHT22;32544;52.832;13.816;2023-02-01T06:18:03;23.40;45.50
46784;DHT22;32544;52.832;13.816;2023-02-01T06:19:04;23.40;45.50
46784;DHT22;32544;52.832;13.816;2023-02-01T06:20:05;23.40;45.50
46784;DHT22;32544;52.832;13.816;2023-02-01T06:21:06;23.40;45.50
46784;DHT22;32544;52.832;13.816;2023-02-01T06:22:07;23.40;45.60
46784;DHT22;32544;52.832;13.816;2023-02-01T06:23:08;23.30;45.50
46784;DHT22;32544;52.832;13.816;2023-02-01T06:24:08;23.40;45.50
46784;DHT22;32544;52.832;13.816;2023-02-01T06:25:10;23.40;45.60
46784;DHT22;32544;52.832;13.816;2023-02-01T06:26:10;23.40;45.50
46784;DHT22;32544;52.832;13.816;2023-02-01T06:27:11;23.40;45.50
46784;DHT22;32544;52.832;13.816;2023-02-01T06:28:12;23.40;45.50
46784;DHT22;32544;52.832;13.816;2023-02-01T06:29:12;23.30;45.60
46784;DHT22;32544;52.832;13.816;2023-02-01T06:30:13;23.40;45.70
46784;DHT22;32544;52.832;13.816;2023-02-01T06:31:14;23.30;45.50
46784;DHT22;32544;52.832;13.816;2023-02-01T06:32:15;23.40;45.50
46784;DHT22;32544;52.832;13.816;2023-02-01T06:33:17;23.40;45.60
46784;DHT22;32544;52.832;13.816;2023-02-01T06:34:18;23.30;45.50
46784;DHT22;32544;52.832;13.816;2023-02-01T06:35:19;23.30;45.60
46784;DHT22;32544;52.832;13.816;2023-02-01T06:36:20;23.30;45.50
46784;DHT22;32544;52.832;13.816;2023-02-01T06:37:21;23.40;45.60
46784;DHT22;32544;52.832;13.816;2023-02-01T06:38:23;23.30;45.50
46784;DHT22;32544;52.832;13.816;2023-02-01T06:39:23;23.30;45.50
46784;DHT22;32544;52.832;13.816;2023-02-01T06:40:24;23.30;45.50
46784;DHT22;32544;52.832;13.816;2023-02-01T06:41:25;23.30;45.50
46784;DHT22;32544;52.832;13.816;2023-02-01T06:42:25;23.30;45.50
46784;DHT22;32544;52.832;13.816;2023-02-01T06:43:26;23.30;45.50
46784;DHT22;32544;52.832;13.816;2023-02-01T06:44:27;23.30;45.60
46784;DHT22;32544;52.832;13.816;2023-02-01T06:45:27;23.30;45.60
46784;DHT22;32544;52.832;13.816;2023-02-01T06:46:28;23.30;45.60
46784;DHT22;32544;52.832;13.816;2023-02-01T06:47:28;23.30;45.60
46784;DHT22;32544;52.832;13.816;2023-02-01T06:48:29;23.30;45.60
46784;DHT22;32544;52.832;13.816;2023-02-01T06:49:30;23.20;45.50
46784;DHT22;32544;52.832;13.816;2023-02-01T06:50:30;23.30;45.60
46784;DHT22;32544;52.832;13.816;2023-02-01T06:51:31;23.30;45.60
46784;DHT22;32544;52.832;13.816;2023-02-01T06:52:31;23.30;45.60
46784;DHT22;32544;52.832;13.816;2023-02-01T06:53:32;23.20;45.60
46784;DHT22;32544;52.832;13.816;2023-02-01T06:54:33;23.30;45.60
46784;DHT22;32544;52.832;13.816;2023-02-01T06:55:34;23.30;45.70